Time;durP1;ratioP1;P1;durP2;ratioP2;P2;SDS_P1;SDS_P2;PMS_P1;PMS_P2;Temp;Humidity;BMP_temperature;BMP_pressure;BME280_temperature;BME280_humidity;BME280_pressure;Samples;Min_cycle;Max_cycle;Signal;HPM_P1;HPM_P2
2021/04/01 00:01:11;;;;;;;9.38;6.43;;;;;;;14.50;42.98;97042.53;5011938;28;20227;-76
2021/04/01 00:03:38;;;;;;;12.80;6.43;;;;;;;14.53;43.28;97042.06;5013062;28;20233;-77
2021/04/01 00:06:03;;;;;;;15.40;7.00;;;;;;;14.42;43.82;97033.22;5013745;28;20171;-70
2021/04/01 00:08:29;;;;;;;16.13;6.93;;;;;;;14.36;44.10;97039.44;5012541;28;20198;-76
2021/04/01 00:10:55;;;;;;;10.10;6.07;;;;;;;14.29;44.44;97040.66;5013525;28;20535;-76
2021/04/01 00:13:20;;;;;;;14.23;6.27;;;;;;;14.21;44.88;97038.44;5012672;28;20232;-76
2021/04/01 00:15:46;;;;;;;13.90;6.53;;;;;;;14.10;44.95;97030.38;5013763;28;20175;-76
2021/04/01 00:18:16;;;;;;;13.20;6.87;;;;;;;14.27;44.23;97034.81;5013489;28;20464;-78
2021/04/01 00:20:42;;;;;;;9.73;6.07;;;;;;;14.18;44.63;97036.28;5014450;28;20502;-79
2021/04/01 00:23:08;;;;;;;9.23;6.07;;;;;;;14.03;44.88;97026.34;5015355;28;20191;-74
2021/04/01 00:25:33;;;;;;;11.37;6.73;;;;;;;14.00;45.42;97024.97;5015082;28;20241;-79
2021/04/01 00:27:59;;;;;;;11.17;6.13;;;;;;;13.98;45.51;97027.06;5014595;28;20179;-79
2021/04/01 00:30:25;;;;;;;10.77;6.70;;;;;;;14.02;45.25;97024.72;5014668;28;20775;-79
2021/04/01 00:32:50;;;;;;;10.80;7.00;;;;;;;13.96;45.34;97020.44;4996692;28;20634;-78
2021/04/01 00:35:17;;;;;;;10.83;7.20;;;;;;;14.00;45.08;97019.69;5013002;28;20231;-78
2021/04/01 00:37:42;;;;;;;12.30;6.93;;;;;;;14.08;44.82;97019.28;5013138;28;20194;-75
2021/04/01 00:40:09;;;;;;;14.37;7.07;;;;;;;13.94;45.16;97022.50;5011029;28;20191;-69
2021/04/01 00:42:35;;;;;;;10.70;6.17;;;;;;;13.89;45.48;97020.59;5011861;28;20657;-73
2021/04/01 00:45:04;;;;;;;14.67;6.60;;;;;;;13.90;45.85;97021.38;5005020;28;20266;-74
2021/04/01 00:47:46;;;;;;;11.07;6.30;;;;;;;13.82;46.83;97021.81;4994301;28;20183;-74
2021/04/01 00:50:16;;;;;;;10.70;5.90;;;;;;;13.78;47.33;97020.69;5011170;28;20638;-76
2021/04/01 00:52:41;;;;;;;10.03;6.20;;;;;;;13.67;47.79;97017.09;5011972;28;20625;-75
2021/04/01 00:55:09;;;;;;;11.17;6.37;;;;;;;13.60;48.44;97021.72;5010261;28;20183;-69
2021/04/01 00:57:36;;;;;;;11.67;6.27;;;;;;;13.58;48.83;97015.91;5011528;28;20561;-75
2021/04/01 01:00:03;;;;;;;14.40;6.63;;;;;;;13.44;49.22;97017.25;5011527;28;20195;-76
2021/04/01 01:02:29;;;;;;;10.00;6.30;;;;;;;13.36;49.33;97013.19;5011285;28;20657;-76
2021/04/01 01:04:54;;;;;;;11.13;5.93;;;;;;;13.30;49.46;97004.41;5012016;28;20197;-77
2021/04/01 01:07:20;;;;;;;11.70;6.83;;;;;;;13.28;49.50;97009.09;5011153;28;20250;-76
2021/04/01 01:09:45;;;;;;;8.93;6.23;;;;;;;13.26;49.71;97010.38;5012078;28;20187;-76
2021/04/01 01:12:11;;;;;;;12.33;6.60;;;;;;;13.24;49.28;96999.28;5011057;28;20187;-75
2021/04/01 01:14:36;;;;;;;12.50;6.33;;;;;;;13.18;49.25;97003.66;5012302;28;20249;-76
2021/04/01 01:17:03;;;;;;;12.13;6.33;;;;;;;13.16;49.47;97000.47;5011823;28;20187;-77
2021/04/01 01:19:37;;;;;;;11.60;6.47;;;;;;;13.26;49.72;96999.84;5011039;28;21023;-76
2021/04/01 01:22:03;;;;;;;11.50;6.73;;;;;;;13.11;50.29;96999.53;5012118;28;20214;-77
2021/04/01 01:24:28;;;;;;;10.40;5.73;;;;;;;12.99;50.78;96996.97;5011480;28;20195;-78
2021/04/01 01:26:54;;;;;;;15.33;6.70;;;;;;;12.92;50.74;96996.34;4994684;28;20179;-74
2021/04/01 01:29:19;;;;;;;8.47;5.70;;;;;;;12.85;51.04;97000.94;5011452;28;20179;-78
2021/04/01 01:31:49;;;;;;;9.97;6.27;;;;;;;12.82;51.55;96996.94;5012550;28;20195;-77
2021/04/01 01:34:14;;;;;;;8.33;5.97;;;;;;;12.86;51.11;96997.28;5011427;28;20649;-77
2021/04/01 01:36:40;;;;;;;11.33;5.87;;;;;;;12.81;50.97;96998.00;5012238;28;20186;-79
2021/04/01 01:39:05;;;;;;;11.13;6.30;;;;;;;12.75;50.79;96998.13;5012873;28;20259;-78
2021/04/01 01:41:31;;;;;;;9.87;6.63;;;;;;;12.73;50.93;96992.28;5012074;28;20203;-79
2021/04/01 01:43:57;;;;;;;13.17;6.97;;;;;;;12.86;50.67;96984.13;5013062;28;20171;-79
2021/04/01 01:46:22;;;;;;;10.37;6.30;;;;;;;12.75;51.33;96988.41;5012688;28;20219;-80
2021/04/01 01:48:48;;;;;;;11.77;6.57;;;;;;;12.67;51.00;96987.97;4996406;28;20190;-75
2021/04/01 01:51:13;;;;;;;10.73;6.23;;;;;;;12.62;51.13;96983.41;5011455;28;20187;-75
2021/04/01 01:53:39;;;;;;;13.93;7.10;;;;;;;12.75;50.76;96980.50;4994636;28;20252;-78
2021/04/01 01:56:04;;;;;;;12.80;6.53;;;;;;;12.77;50.62;96975.00;5011676;28;20218;-76
2021/04/01 01:58:30;;;;;;;8.77;5.93;;;;;;;12.72;50.47;96980.16;5011230;28;20188;-77
2021/04/01 02:00:57;;;;;;;13.17;7.20;;;;;;;12.83;49.90;96977.50;5011371;28;20223;-76
2021/04/01 02:03:26;;;;;;;12.00;6.30;;;;;;;12.77;50.05;96970.53;4993617;28;20175;-77
2021/04/01 02:05:52;;;;;;;8.20;6.23;;;;;;;12.73;50.22;96976.50;5011754;28;20524;-78
2021/04/01 02:08:19;;;;;;;11.20;6.10;;;;;;;12.73;50.28;96966.00;5010363;28;20187;-75
2021/04/01 02:10:47;;;;;;;11.50;6.50;;;;;;;12.66;50.36;96974.00;4996122;28;20569;-74
2021/04/01 02:13:17;;;;;;;9.97;6.30;;;;;;;12.83;49.65;96960.91;5013678;28;20211;-75
2021/04/01 02:15:44;;;;;;;11.43;6.07;;;;;;;12.73;49.96;96961.53;5014578;28;20570;-75
2021/04/01 02:18:12;;;;;;;14.17;6.20;;;;;;;12.76;49.88;96955.78;5014383;28;20183;-70
2021/04/01 02:20:41;;;;;;;10.10;6.10;;;;;;;12.68;50.10;96958.00;5014880;28;20281;-76
2021/04/01 02:23:12;;;;;;;11.03;6.13;;;;;;;12.64;50.15;96949.00;5014031;28;20198;-76
2021/04/01 02:25:39;;;;;;;12.23;6.17;;;;;;;12.65;49.84;96954.00;5000350;28;20188;-76
2021/04/01 02:28:05;;;;;;;10.57;6.47;;;;;;;12.78;49.20;96955.56;5014599;28;20180;-76
2021/04/01 02:30:31;;;;;;;13.60;6.37;;;;;;;12.80;48.85;96948.25;5013742;28;20190;-76
2021/04/01 02:32:57;;;;;;;7.83;5.60;;;;;;;12.79;49.07;96950.06;5014345;28;20214;-76
2021/04/01 02:35:22;;;;;;;11.80;6.07;;;;;;;12.81;48.95;96953.28;5013022;28;20175;-75
2021/04/01 02:37:49;;;;;;;9.37;6.13;;;;;;;12.79;49.14;96951.91;5014032;28;20187;-75
2021/04/01 02:40:15;;;;;;;10.03;6.30;;;;;;;12.69;49.44;96949.88;5013738;28;20190;-76
2021/04/01 02:42:41;;;;;;;9.87;6.20;;;;;;;12.69;49.29;96947.25;4997000;28;20203;-76
2021/04/01 02:45:09;;;;;;;9.83;6.60;;;;;;;12.60;49.55;96947.84;5014109;28;20179;-75
2021/04/01 02:47:34;;;;;;;9.97;6.40;;;;;;;12.67;49.56;96941.44;5013883;28;20176;-76
2021/04/01 02:50:00;;;;;;;9.67;6.60;;;;;;;12.57;49.89;96950.97;5014229;28;20638;-76
2021/04/01 02:52:25;;;;;;;13.23;6.50;;;;;;;12.42;50.87;96947.03;5012413;28;20194;-76
2021/04/01 02:54:51;;;;;;;7.83;6.43;;;;;;;12.50;50.55;96951.09;5014492;28;20179;-76
2021/04/01 02:57:17;;;;;;;9.00;6.23;;;;;;;12.45;50.90;96949.19;5013803;28;20634;-78
2021/04/01 02:59:45;;;;;;;10.10;6.00;;;;;;;12.44;50.65;96952.03;5014680;28;20184;-77
2021/04/01 03:02:11;;;;;;;11.60;5.77;;;;;;;12.40;51.15;96950.91;5014856;28;20253;-71
2021/04/01 03:04:37;;;;;;;10.33;5.90;;;;;;;12.26;51.58;96947.72;5014516;28;20206;-78
2021/04/01 03:07:04;;;;;;;10.60;6.07;;;;;;;12.20;51.89;96947.88;5014940;28;20584;-78
2021/04/01 03:09:29;;;;;;;8.63;5.83;;;;;;;12.31;51.41;96942.59;5013800;28;20271;-77
2021/04/01 03:11:55;;;;;;;8.10;5.80;;;;;;;12.34;51.43;96941.31;5015131;28;20685;-77
2021/04/01 03:14:20;;;;;;;10.80;6.00;;;;;;;12.27;51.15;96948.53;5014946;28;20183;-78
2021/04/01 03:16:45;;;;;;;10.37;6.00;;;;;;;12.36;51.22;96945.34;5014620;28;20183;-78
2021/04/01 03:19:11;;;;;;;8.50;6.37;;;;;;;12.39;51.46;96947.47;5014157;28;20190;-70
2021/04/01 03:21:36;;;;;;;11.93;6.00;;;;;;;12.40;51.74;96943.81;5013511;28;20207;-78
2021/04/01 03:24:02;;;;;;;10.30;6.00;;;;;;;12.24;51.83;96943.75;5016265;28;20577;-78
2021/04/01 03:26:27;;;;;;;9.73;6.10;;;;;;;12.15;52.44;96951.19;5014924;28;20274;-78
2021/04/01 03:28:53;;;;;;;6.50;5.43;;;;;;;12.13;52.31;96941.97;5015050;28;20190;-77
2021/04/01 03:31:18;;;;;;;8.37;5.23;;;;;;;12.07;52.39;96943.69;5014178;28;20229;-78
2021/04/01 03:33:43;;;;;;;8.87;5.47;;;;;;;12.17;52.36;96941.25;5014965;28;20187;-75
2021/04/01 03:36:09;;;;;;;11.90;5.73;;;;;;;12.34;51.41;96938.69;5013866;28;20234;-70
2021/04/01 03:38:35;;;;;;;11.80;6.37;;;;;;;12.33;51.60;96943.16;5013515;28;20179;-77
2021/04/01 03:41:00;;;;;;;10.87;5.90;;;;;;;12.32;51.31;96946.00;5014562;28;20216;-76
2021/04/01 03:43:26;;;;;;;11.90;5.37;;;;;;;12.19;51.88;96944.47;5013837;28;20266;-77
2021/04/01 03:45:52;;;;;;;11.50;6.13;;;;;;;12.32;51.31;96941.56;4996703;28;20274;-78
2021/04/01 03:48:18;;;;;;;12.43;6.40;;;;;;;12.37;51.49;96935.63;5013496;28;20239;-76
2021/04/01 03:50:43;;;;;;;10.87;5.90;;;;;;;12.34;51.37;96936.06;4996834;28;20179;-77
2021/04/01 03:53:09;;;;;;;9.77;6.03;;;;;;;12.37;50.83;96941.66;5013552;28;20193;-77
2021/04/01 03:55:44;;;;;;;10.20;5.87;;;;;;;12.34;50.99;96938.69;5012882;28;20481;-77
2021/04/01 04:01:18;;;;;;;11.33;5.80;;;;;;;12.44;50.51;96941.50;5013721;28;20233;-77
2021/04/01 04:14:08;;;;;;;10.23;5.90;;;;;;;12.33;50.73;96943.16;5001965;28;20259;-78
2021/04/01 04:16:34;;;;;;;11.03;6.40;;;;;;;12.39;50.57;96951.94;5013715;28;20410;-79
2021/04/01 04:18:59;;;;;;;11.03;6.60;;;;;;;12.45;50.46;96948.38;4997116;28;20179;-79
2021/04/01 04:21:25;;;;;;;14.27;5.93;;;;;;;12.41;50.47;96942.78;5014197;28;20302;-78
2021/04/01 04:23:51;;;;;;;11.37;6.00;;;;;;;12.35;50.35;96945.56;5014608;28;20532;-78
2021/04/01 04:26:17;;;;;;;8.27;5.50;;;;;;;12.30;50.90;96941.00;4995991;28;20188;-77
2021/04/01 04:28:43;;;;;;;12.60;6.10;;;;;;;12.34;50.59;96936.88;4979411;28;20538;-76
2021/04/01 04:31:09;;;;;;;11.13;5.80;;;;;;;12.36;50.29;96940.06;5012926;28;20191;-78
2021/04/01 04:33:35;;;;;;;8.93;6.00;;;;;;;12.29;50.41;96936.78;5011905;28;21045;-77
2021/04/01 04:36:01;;;;;;;12.17;6.50;;;;;;;12.38;50.22;96938.00;5013861;28;20279;-75
2021/04/01 04:38:27;;;;;;;10.50;5.67;;;;;;;12.44;50.10;96938.88;4994461;28;20199;-78
2021/04/01 04:40:56;;;;;;;13.23;5.87;;;;;;;12.42;50.02;96944.41;5014223;28;20211;-75
2021/04/01 04:43:22;;;;;;;14.03;6.30;;;;;;;12.40;50.58;96948.28;5012342;28;20180;-75
2021/04/01 04:45:47;;;;;;;12.87;6.60;;;;;;;12.23;50.76;96944.78;5013122;28;20183;-76
2021/04/01 04:48:13;;;;;;;8.53;5.63;;;;;;;12.31;50.81;96945.22;4994806;28;20190;-70
2021/04/01 04:50:38;;;;;;;8.00;5.90;;;;;;;12.22;50.96;96940.56;4994371;28;20233;-75
2021/04/01 04:53:04;;;;;;;15.70;6.40;;;;;;;12.20;51.23;96955.78;4995076;28;20211;-77
2021/04/01 04:55:30;;;;;;;10.30;6.00;;;;;;;12.09;51.71;96952.91;5012317;28;20560;-77
2021/04/01 05:05:39;;;;;;;9.33;5.80;;;;;;;12.18;51.05;96961.25;5011885;28;20229;-75
2021/04/01 05:08:05;;;;;;;8.20;5.87;;;;;;;12.19;51.17;96959.44;4994559;28;20171;-75
2021/04/01 05:10:31;;;;;;;12.87;5.67;;;;;;;12.24;51.17;96957.69;5011349;28;20175;-76
2021/04/01 05:13:09;;;;;;;10.20;5.50;;;;;;;12.40;50.24;96954.34;5012228;28;20211;-78
2021/04/01 05:15:39;;;;;;;9.27;5.53;;;;;;;12.52;49.91;96956.13;5012036;28;20183;-76
2021/04/01 05:18:23;;;;;;;10.20;6.27;;;;;;;12.51;50.48;96955.31;5011858;28;20183;-70
2021/04/01 05:20:50;;;;;;;10.47;5.20;;;;;;;12.77;55.04;96960.00;4995571;28;20253;-69
2021/04/01 05:23:27;;;;;;;11.13;5.60;;;;;;;12.84;50.27;96962.50;4981910;28;20697;-70
2021/04/01 05:26:24;;;;;;;7.70;4.70;;;;;;;13.14;49.24;96965.72;5011930;28;20561;-70
2021/04/01 05:28:43;;;;;;;9.83;5.23;;;;;;;13.14;48.82;96965.72;5010288;28;20202;-71
2021/04/01 05:31:10;;;;;;;10.63;5.67;;;;;;;13.07;49.01;96967.66;5011197;28;20579;-70
2021/04/01 05:33:38;;;;;;;13.77;5.57;;;;;;;12.97;49.58;96966.69;5010186;28;20183;-71
2021/04/01 05:36:09;;;;;;;9.90;5.17;;;;;;;13.07;49.10;96970.28;5010510;28;20225;-71
2021/04/01 05:38:36;;;;;;;15.20;5.70;;;;;;;13.25;48.80;96969.31;5010314;28;20433;-70
2021/04/01 05:41:02;;;;;;;7.90;4.80;;;;;;;13.37;48.32;96977.94;5011399;28;20175;-71
2021/04/01 05:43:30;;;;;;;10.00;4.90;;;;;;;13.50;48.09;96974.97;5009977;28;20179;-70
2021/04/01 05:46:06;;;;;;;11.73;4.80;;;;;;;13.61;49.06;96978.53;5013958;28;20190;-70
2021/04/01 05:48:53;;;;;;;12.60;5.30;;;;;;;13.67;49.32;96980.22;5013921;28;20179;-70
2021/04/01 05:57:09;;;;;;;10.03;4.83;;;;;;;13.71;49.35;96978.69;5014070;28;20226;-70
2021/04/01 06:00:04;;;;;;;10.03;4.90;;;;;;;13.82;49.01;96985.69;5013764;28;20187;-71
2021/04/01 06:02:49;;;;;;;7.47;4.93;;;;;;;13.88;48.75;96984.72;5014091;28;20647;-69
2021/04/01 06:05:21;;;;;;;10.20;5.40;;;;;;;13.82;48.74;96987.56;5014587;28;20164;-70
2021/04/01 06:07:51;;;;;;;9.60;4.80;;;;;;;13.84;48.74;96985.47;5014738;28;20274;-71
2021/04/01 06:10:19;;;;;;;9.00;4.90;;;;;;;13.83;49.19;96986.50;5014138;28;20638;-72
2021/04/01 06:12:45;;;;;;;10.40;5.03;;;;;;;13.59;49.74;96984.06;5014805;28;20183;-70
2021/04/01 06:15:13;;;;;;;8.93;5.00;;;;;;;13.79;49.24;96980.13;5013945;28;20183;-70
2021/04/01 06:17:46;;;;;;;9.00;5.50;;;;;;;13.82;49.26;96984.94;5004296;28;20192;-69
2021/04/01 06:20:13;;;;;;;7.40;4.60;;;;;;;13.83;49.48;96986.50;5014435;28;20211;-71
2021/04/01 06:22:43;;;;;;;8.53;5.23;;;;;;;13.82;49.05;96990.19;5013392;28;20888;-71
2021/04/01 06:25:12;;;;;;;9.77;5.20;;;;;;;13.86;49.00;96984.19;5014361;28;20176;-72
2021/04/01 06:27:42;;;;;;;10.73;4.80;;;;;;;13.87;48.96;96988.44;5010357;28;20809;-71
2021/04/01 06:33:05;;;;;;;9.37;5.40;;;;;;;14.03;49.82;96997.34;5014415;28;20517;-70
2021/04/01 06:35:41;;;;;;;11.87;4.90;;;;;;;14.15;50.20;96996.16;5012945;28;20183;-71
2021/04/01 06:40:41;;;;;;;9.47;4.87;;;;;;;14.39;49.72;96993.34;5013230;28;20843;-71
2021/04/01 06:43:21;;;;;;;6.83;5.00;;;;;;;14.55;49.50;96992.47;5013889;28;20211;-71
2021/04/01 06:45:55;;;;;;;10.23;4.47;;;;;;;14.82;48.53;96995.19;5013496;28;20171;-71
2021/04/01 06:48:27;;;;;;;12.13;4.77;;;;;;;15.06;47.68;96988.53;5013589;28;20183;-71
2021/04/01 06:51:05;;;;;;;8.80;4.73;;;;;;;15.16;47.49;96996.56;5014024;28;20176;-70
2021/04/01 06:58:51;;;;;;;11.88;4.82;;;;;;;15.69;48.35;96982.50;5012505;28;20195;-71
2021/04/01 07:01:37;;;;;;;7.97;5.45;;;;;;;15.58;49.33;96994.03;4974093;28;20227;-71
2021/04/01 07:04:06;;;;;;;13.87;5.43;;;;;;;15.32;49.44;96984.31;4988144;28;20168;-71
2021/04/01 07:06:36;;;;;;;8.47;4.60;;;;;;;15.34;49.00;96985.63;5010717;28;20190;-71
2021/04/01 07:09:26;;;;;;;8.30;5.03;;;;;;;15.28;48.06;96983.19;4993307;28;20208;-70
2021/04/01 07:12:23;;;;;;;7.33;4.63;;;;;;;15.31;47.81;96982.69;4988402;28;20210;-70
2021/04/01 07:14:50;;;;;;;7.82;5.03;;;;;;;15.40;47.20;96986.47;4992353;28;20171;-70
2021/04/01 07:17:29;;;;;;;11.07;4.97;;;;;;;15.40;47.67;96978.53;4995283;28;20188;-70
2021/04/01 07:47:47;;;;;;;6.00;4.47;;;;;;;16.85;43.78;96986.78;4989063;28;20234;-69
2021/04/01 07:50:19;;;;;;;7.07;4.07;;;;;;;17.13;42.90;96986.31;4992982;28;20644;-69
2021/04/01 07:53:01;;;;;;;9.15;4.80;;;;;;;17.43;42.46;96986.34;4991934;28;20239;-69
2021/04/01 08:06:18;;;;;;;5.82;4.85;;;;;;;18.44;44.03;96976.63;4998512;28;20175;-69
2021/04/01 08:08:46;;;;;;;9.02;4.70;;;;;;;18.61;44.02;96979.78;5011360;28;20190;-65
2021/04/01 08:11:15;;;;;;;5.63;4.55;;;;;;;18.71;44.26;96977.06;4991136;28;20654;-68
2021/04/01 08:13:46;;;;;;;8.20;4.72;;;;;;;18.98;43.68;96977.44;4995257;28;20215;-69
2021/04/01 08:16:15;;;;;;;6.68;4.07;;;;;;;19.27;42.55;96974.06;5012032;28;20614;-68
2021/04/01 08:18:42;;;;;;;7.13;4.30;;;;;;;19.49;42.20;96972.59;5002955;28;20999;-69
2021/04/01 08:21:11;;;;;;;8.75;4.68;;;;;;;19.45;41.84;96974.19;5012529;28;20630;-69
2021/04/01 08:23:53;;;;;;;9.02;4.57;;;;;;;19.58;41.69;96971.97;5010883;28;20187;-69
2021/04/01 08:36:41;;;;;;;7.82;5.60;;;;;;;19.59;44.20;96971.72;5011030;28;20540;-69
2021/04/01 08:39:08;;;;;;;9.75;4.90;;;;;;;19.46;44.10;96969.69;5007328;28;20171;-69
2021/04/01 08:41:50;;;;;;;6.43;4.60;;;;;;;19.33;44.16;96965.78;5011290;28;20211;-69
2021/04/01 08:44:40;;;;;;;14.73;4.55;;;;;;;19.56;43.49;96969.59;4994348;28;20182;-70
2021/04/01 08:47:08;;;;;;;11.98;4.75;;;;;;;19.58;43.79;96969.31;5011476;28;20190;-69
2021/04/01 08:49:53;;;;;;;5.13;4.32;;;;;;;19.81;43.25;96965.94;5010831;28;20179;-69
2021/04/01 08:52:47;;;;;;;8.75;4.53;;;;;;;19.82;43.20;96970.19;4996538;28;20182;-69
2021/04/01 08:55:19;;;;;;;13.90;5.35;;;;;;;19.90;43.52;96973.00;5011726;28;20513;-69
2021/04/01 08:58:20;;;;;;;14.25;5.50;;;;;;;19.83;43.63;96975.22;5010787;28;20183;-69
2021/04/01 09:00:49;;;;;;;12.55;4.80;;;;;;;19.64;44.15;96969.00;4998626;28;20720;-69
2021/04/01 09:03:17;;;;;;;13.05;4.88;;;;;;;19.76;43.66;96966.78;5011004;28;20195;-69
2021/04/01 09:05:54;;;;;;;6.13;4.30;;;;;;;19.97;43.11;96962.03;5010490;28;20179;-69
2021/04/01 09:08:25;;;;;;;6.35;4.22;;;;;;;20.15;41.94;96960.53;4995480;28;20202;-69
2021/04/01 09:10:53;;;;;;;9.95;4.00;;;;;;;20.00;42.26;96964.16;5010926;28;20193;-69
2021/04/01 09:13:31;;;;;;;14.43;4.35;;;;;;;20.30;42.11;96966.47;5011769;28;20250;-69
2021/04/01 09:16:05;;;;;;;10.25;4.65;;;;;;;20.52;41.56;96963.28;5011536;28;20205;-69
2021/04/01 09:18:32;;;;;;;9.55;4.20;;;;;;;20.54;41.60;96966.47;4992786;28;20617;-69
2021/04/01 09:21:03;;;;;;;6.20;4.15;;;;;;;20.50;41.91;96965.47;5017343;28;20637;-69
2021/04/01 09:23:37;;;;;;;7.63;3.75;;;;;;;20.67;41.15;96962.34;5017076;28;20542;-69
2021/04/01 09:26:04;;;;;;;11.15;4.40;;;;;;;19.65;42.78;96961.81;5017639;28;20214;-69
2021/04/01 09:28:35;;;;;;;11.48;4.35;;;;;;;19.60;43.22;96953.88;4999317;28;20183;-69
2021/04/01 09:31:03;;;;;;;7.32;3.70;;;;;;;19.33;42.87;96962.34;5000455;28;20260;-69
2021/04/01 09:33:30;;;;;;;10.00;4.38;;;;;;;19.13;43.30;96962.47;5001029;28;20277;-69
2021/04/01 09:36:06;;;;;;;9.65;3.83;;;;;;;18.87;43.78;96959.19;5018029;28;20649;-69
2021/04/01 09:38:37;;;;;;;8.18;3.65;;;;;;;18.87;43.29;96956.53;4999270;28;20194;-69
2021/04/01 09:41:03;;;;;;;9.00;4.43;;;;;;;18.93;42.96;96964.19;5017893;28;20179;-70
2021/04/01 09:43:28;;;;;;;8.68;3.75;;;;;;;18.75;42.77;96964.81;5016334;28;20194;-69
2021/04/01 09:45:59;;;;;;;6.07;3.95;;;;;;;18.84;43.00;96952.53;5017577;28;20182;-69
2021/04/01 09:48:30;;;;;;;10.10;3.72;;;;;;;18.81;42.57;96958.41;5017294;28;20614;-69
2021/04/01 09:51:00;;;;;;;6.05;3.90;;;;;;;18.77;42.21;96953.94;5017577;28;20634;-69
2021/04/01 09:53:27;;;;;;;9.57;3.90;;;;;;;18.83;42.28;96956.28;5016105;28;20183;-69
2021/04/01 09:55:55;;;;;;;14.55;4.63;;;;;;;18.81;42.02;96957.63;5017032;28;20237;-69
2021/04/01 09:58:31;;;;;;;7.38;3.70;;;;;;;18.73;41.62;96960.84;4999625;28;20572;-69
2021/04/01 10:01:03;;;;;;;5.20;3.60;;;;;;;18.71;41.80;96960.34;5016772;28;20578;-69
2021/04/01 10:03:43;;;;;;;7.97;4.07;;;;;;;18.82;42.05;96956.56;5016405;28;20184;-69
2021/04/01 10:06:09;;;;;;;13.63;4.18;;;;;;;18.50;42.66;96949.00;5017383;28;20186;-61
2021/04/01 10:08:37;;;;;;;7.75;4.22;;;;;;;18.38;42.63;96951.97;4998702;28;20191;-69
2021/04/01 10:11:21;;;;;;;10.57;4.72;;;;;;;18.73;42.46;96934.28;4999468;28;20653;-70
2021/04/01 10:13:46;;;;;;;11.43;4.55;;;;;;;18.67;42.50;96944.13;5001869;28;20228;-69
2021/04/01 10:16:23;;;;;;;9.57;4.68;;;;;;;18.69;42.94;96937.50;5017475;28;20175;-70
2021/04/01 10:18:48;;;;;;;10.63;4.65;;;;;;;18.74;42.77;96935.88;5016542;28;20175;-69
2021/04/01 10:21:14;;;;;;;8.10;4.70;;;;;;;18.83;42.47;96931.59;5016270;28;20274;-69
2021/04/01 10:23:42;;;;;;;8.43;4.53;;;;;;;18.98;42.84;96929.63;5015687;28;20262;-69
2021/04/01 10:26:10;;;;;;;11.80;4.70;;;;;;;19.13;42.63;96926.06;5016984;28;20225;-70
2021/04/01 10:28:40;;;;;;;14.77;4.95;;;;;;;19.27;42.25;96923.56;5016379;28;20183;-70
2021/04/01 10:31:12;;;;;;;11.52;4.72;;;;;;;19.39;41.87;96918.69;5016347;28;20641;-69
2021/04/01 10:34:00;;;;;;;9.23;4.80;;;;;;;19.46;41.93;96911.97;5013229;28;20187;-69
2021/04/01 10:36:28;;;;;;;11.90;4.50;;;;;;;19.33;41.50;96907.31;5008472;28;20179;-69
2021/04/01 10:39:02;;;;;;;9.88;4.65;;;;;;;19.22;41.61;96905.81;5013904;28;20184;-70
2021/04/01 10:41:28;;;;;;;10.05;4.60;;;;;;;19.55;41.44;96904.22;5013734;28;20195;-69
2021/04/01 10:43:59;;;;;;;9.93;4.55;;;;;;;19.68;40.96;96902.75;5013271;28;20282;-73
2021/04/01 10:46:25;;;;;;;7.38;4.15;;;;;;;19.64;41.21;96891.88;5012669;28;20573;-70
2021/04/01 10:48:59;;;;;;;8.52;4.20;;;;;;;19.84;40.88;96891.66;5013221;28;20206;-69
2021/04/01 10:51:25;;;;;;;15.30;4.72;;;;;;;19.90;40.56;96887.88;4995608;28;20642;-69
2021/04/01 10:53:51;;;;;;;7.97;4.30;;;;;;;20.19;39.91;96887.00;4978434;28;20203;-70
2021/04/01 10:56:17;;;;;;;13.73;4.30;;;;;;;20.25;39.70;96880.53;5014126;28;20183;-70
2021/04/01 10:58:54;;;;;;;8.00;4.15;;;;;;;20.24;39.83;96877.09;5012974;28;20184;-69
2021/04/01 11:01:42;;;;;;;11.48;3.88;;;;;;;20.11;39.98;96872.47;5013443;28;20654;-69
2021/04/01 11:04:10;;;;;;;9.43;3.67;;;;;;;20.13;39.77;96874.81;5011354;28;20693;-70
2021/04/01 11:06:37;;;;;;;15.55;4.35;;;;;;;20.05;39.48;96875.47;5012570;28;20194;-70
2021/04/01 11:09:03;;;;;;;7.57;3.20;;;;;;;20.24;39.53;96869.09;5012870;28;20638;-69
2021/04/01 11:14:30;;;;;;;5.70;3.45;;;;;;;20.53;38.23;96868.22;4989695;28;20233;-69
2021/04/01 11:16:59;;;;;;;7.90;3.00;;;;;;;20.39;38.51;96862.03;5013111;28;20195;-69
2021/04/01 11:19:27;;;;;;;6.05;3.20;;;;;;;20.61;38.35;96863.06;5013252;28;20183;-70
2021/04/01 11:21:54;;;;;;;8.02;3.10;;;;;;;20.59;38.20;96857.22;5012019;28;20215;-70
2021/04/01 11:24:36;;;;;;;10.93;3.42;;;;;;;20.69;38.20;96850.94;5013583;28;20230;-70
2021/04/01 11:27:14;;;;;;;11.43;3.42;;;;;;;20.54;38.60;96849.28;5013178;28;20175;-71
2021/04/01 11:29:48;;;;;;;4.80;3.08;;;;;;;20.68;38.30;96846.69;5012077;28;20175;-70
2021/04/01 11:32:23;;;;;;;7.53;3.17;;;;;;;20.81;38.02;96842.50;5012939;28;20525;-70
2021/04/01 11:34:50;;;;;;;5.68;2.67;;;;;;;20.79;37.83;96840.13;5011663;28;20183;-70
2021/04/01 11:37:21;;;;;;;7.15;2.95;;;;;;;20.76;37.87;96835.38;5012795;28;20179;-70
2021/04/01 11:39:48;;;;;;;5.43;3.38;;;;;;;20.77;38.02;96836.19;5000985;28;20224;-70
2021/04/01 11:42:16;;;;;;;7.72;2.85;;;;;;;20.78;37.76;96829.78;5012649;28;20274;-70
2021/04/01 11:44:42;;;;;;;5.45;2.80;;;;;;;20.96;37.70;96836.91;5012063;28;20183;-70
2021/04/01 11:47:16;;;;;;;6.65;2.70;;;;;;;21.04;37.35;96837.06;5012609;28;20188;-72
2021/04/01 11:49:42;;;;;;;4.30;2.70;;;;;;;21.12;37.43;96832.94;5011744;28;20175;-70
2021/04/01 11:52:10;;;;;;;7.53;2.80;;;;;;;21.16;37.74;96831.31;4994519;28;20541;-70
2021/04/01 11:54:36;;;;;;;6.55;3.10;;;;;;;21.29;37.42;96819.84;5011853;28;20606;-70
2021/04/01 11:57:02;;;;;;;5.25;2.72;;;;;;;21.40;37.09;96821.25;5012761;28;20215;-70
2021/04/01 11:59:34;;;;;;;6.55;3.10;;;;;;;21.32;37.27;96821.16;5012344;28;20190;-70
2021/04/01 12:02:08;;;;;;;5.32;2.80;;;;;;;21.21;37.16;96812.56;4996611;28;20223;-70
2021/04/01 12:04:37;;;;;;;5.63;2.70;;;;;;;21.38;37.63;96807.44;5012094;28;20622;-69
2021/04/01 12:07:05;;;;;;;4.28;2.40;;;;;;;21.20;37.38;96797.63;5007428;28;20198;-70
2021/04/01 12:09:31;;;;;;;7.28;2.63;;;;;;;21.23;37.31;96801.59;4987851;28;20562;-70
2021/04/01 12:11:56;;;;;;;3.22;2.58;;;;;;;21.35;37.04;96794.69;5006351;28;20183;-70
2021/04/01 12:14:34;;;;;;;3.85;1.90;;;;;;;21.44;37.01;96797.47;5000845;28;20322;-70
2021/04/01 12:17:01;;;;;;;7.00;2.40;;;;;;;21.60;36.92;96809.44;5002540;28;20175;-70
2021/04/01 12:19:27;;;;;;;4.65;2.97;;;;;;;21.57;36.75;96797.47;4973054;28;20184;-70
2021/04/01 12:21:53;;;;;;;5.68;2.28;;;;;;;21.49;36.63;96794.72;5003645;28;20218;-70
2021/04/01 12:24:19;;;;;;;6.22;2.28;;;;;;;21.60;36.62;96792.63;5010750;28;20191;-70
2021/04/01 12:26:49;;;;;;;3.58;2.33;;;;;;;21.65;36.50;96784.53;5011333;28;20695;-69
2021/04/01 12:29:16;;;;;;;3.72;2.45;;;;;;;21.52;37.05;96781.56;5012056;28;20542;-71
2021/04/01 12:31:53;;;;;;;5.55;2.58;;;;;;;21.74;37.14;96780.06;5008764;28;20185;-71
2021/04/01 12:34:36;;;;;;;6.97;2.58;;;;;;;21.85;36.24;96771.56;5002782;28;20179;-71
2021/04/01 12:37:03;;;;;;;4.78;2.40;;;;;;;21.78;36.32;96765.06;5012021;28;20517;-71
2021/04/01 12:39:34;;;;;;;7.30;1.98;;;;;;;21.81;36.30;96761.78;5012025;28;20219;-71
2021/04/01 12:42:00;;;;;;;6.53;2.40;;;;;;;21.76;36.02;96760.00;5012137;28;20203;-70
2021/04/01 12:44:38;;;;;;;4.30;2.40;;;;;;;21.65;35.74;96760.50;5012050;28;20214;-70
2021/04/01 12:47:03;;;;;;;4.00;2.15;;;;;;;21.63;36.11;96762.69;5011988;28;20761;-71
2021/04/01 12:49:37;;;;;;;5.80;2.22;;;;;;;21.66;36.07;96751.44;5011306;28;20265;-70
2021/04/01 12:52:04;;;;;;;4.38;2.20;;;;;;;21.76;35.71;96751.22;5010607;28;20597;-71
2021/04/01 12:54:40;;;;;;;3.40;1.90;;;;;;;21.83;35.34;96755.06;4993045;28;20197;-71
2021/04/01 12:57:13;;;;;;;2.83;2.20;;;;;;;22.12;35.34;96757.41;5011460;28;20175;-71
2021/04/01 12:59:49;;;;;;;4.85;2.13;;;;;;;22.27;34.44;96741.03;5011010;28;20182;-71
2021/04/01 13:02:17;;;;;;;6.15;2.38;;;;;;;22.49;34.01;96742.94;5011200;28;20222;-71
2021/04/01 13:04:55;;;;;;;7.22;2.10;;;;;;;22.64;33.92;96744.44;4993598;28;20179;-69
2021/04/01 13:07:25;;;;;;;5.97;2.17;;;;;;;22.88;33.29;96742.28;5010783;28;20178;-70
2021/04/01 13:10:30;;;;;;;6.88;2.10;;;;;;;22.99;32.75;96743.59;5010553;28;20183;-70